Time;durP1;ratioP1;P1;durP2;ratioP2;P2;SDS_P1;SDS_P2;PMS_P1;PMS_P2;Temp;Humidity;BMP_temperature;BMP_pressure;BME280_temperature;BME280_humidity;BME280_pressure;Samples;Min_cycle;Max_cycle;Signal;HPM_P1;HPM_P2
2021/12/22 00:01:20;;;;;;;28.80;14.43;;;;;;;-4.30;100.00;102629.00;5055216;28;20034;-53
2021/12/22 00:03:49;;;;;;;27.88;13.93;;;;;;;-4.33;100.00;102630.66;5031069;28;20080;-52
2021/12/22 00:06:20;;;;;;;30.65;15.82;;;;;;;-4.40;100.00;102637.34;5030948;28;20045;-53
2021/12/22 00:08:48;;;;;;;22.83;13.13;;;;;;;-4.28;100.00;102631.63;5033098;28;20056;-53
2021/12/22 00:11:18;;;;;;;22.45;12.98;;;;;;;-4.33;100.00;102633.22;5035268;28;20111;-52
2021/12/22 00:13:46;;;;;;;28.08;14.45;;;;;;;-4.38;100.00;102634.81;5031615;28;20057;-51
2021/12/22 00:16:16;;;;;;;26.70;13.80;;;;;;;-4.36;100.00;102628.88;5032109;28;20459;-54
2021/12/22 00:18:45;;;;;;;26.98;13.98;;;;;;;-4.41;100.00;102625.31;5031849;28;20116;-54
2021/12/22 00:21:14;;;;;;;27.77;15.07;;;;;;;-4.44;100.00;102622.69;5032369;28;20053;-54
2021/12/22 00:23:43;;;;;;;24.48;13.88;;;;;;;-4.46;100.00;102625.22;5048472;28;20063;-53
2021/12/22 00:26:11;;;;;;;27.50;13.82;;;;;;;-4.48;100.00;102629.41;5051019;28;20518;-54
2021/12/22 00:28:40;;;;;;;26.25;14.18;;;;;;;-4.50;100.00;102625.06;5031860;28;20449;-54
2021/12/22 00:31:12;;;;;;;26.92;14.05;;;;;;;-4.48;100.00;102629.41;5032473;28;20064;-54
2021/12/22 00:33:48;;;;;;;26.15;13.25;;;;;;;-4.43;100.00;102632.09;5034767;28;20523;-55
2021/12/22 00:36:20;;;;;;;27.20;13.40;;;;;;;-4.47;100.00;102627.72;5034183;28;20057;-53
2021/12/22 00:38:49;;;;;;;26.75;14.00;;;;;;;-4.54;100.00;102618.13;5033810;28;20053;-53
2021/12/22 00:41:17;;;;;;;27.95;14.57;;;;;;;-4.52;100.00;102621.59;5031411;28;20053;-51
2021/12/22 00:43:45;;;;;;;30.40;14.70;;;;;;;-4.48;100.00;102626.00;5032605;28;20056;-53
2021/12/22 00:46:15;;;;;;;26.80;13.98;;;;;;;-4.58;100.00;102622.31;5032862;28;20381;-53
2021/12/22 00:48:44;;;;;;;25.70;13.10;;;;;;;-4.54;100.00;102623.25;5034067;28;20057;-52
2021/12/22 00:51:12;;;;;;;24.83;13.38;;;;;;;-4.59;100.00;102626.56;5033621;28;20385;-53
2021/12/22 00:53:40;;;;;;;25.45;13.23;;;;;;;-4.59;100.00;102623.16;5032048;28;20045;-52
2021/12/22 00:56:08;;;;;;;27.50;13.32;;;;;;;-4.56;100.00;102632.63;5032102;28;20045;-52
2021/12/22 00:58:37;;;;;;;27.55;13.45;;;;;;;-4.62;100.00;102631.63;5052564;28;20053;-50
2021/12/22 01:01:05;;;;;;;25.85;13.63;;;;;;;-4.54;100.00;102623.25;5053432;28;20511;-54
2021/12/22 01:03:35;;;;;;;24.73;13.63;;;;;;;-4.62;100.00;102628.19;5052795;28;20051;-54
2021/12/22 01:06:05;;;;;;;25.75;13.63;;;;;;;-4.66;100.00;102626.34;5051368;28;20041;-54
2021/12/22 01:08:33;;;;;;;25.25;13.30;;;;;;;-4.68;100.00;102625.47;5049933;28;20055;-51
2021/12/22 01:11:01;;;;;;;27.35;13.77;;;;;;;-4.65;100.00;102633.25;5053347;28;20074;-50
2021/12/22 01:13:30;;;;;;;25.10;13.18;;;;;;;-4.66;100.00;102640.09;5053263;28;20381;-53
2021/12/22 01:15:58;;;;;;;30.58;14.23;;;;;;;-4.61;100.00;102630.81;5051556;28;20053;-51
2021/12/22 01:18:31;;;;;;;28.02;13.18;;;;;;;-4.65;100.00;102629.00;5052334;28;20060;-51
2021/12/22 01:21:09;;;;;;;23.83;12.30;;;;;;;-4.69;100.00;102626.28;5050513;28;20135;-50
2021/12/22 01:23:48;;;;;;;24.13;13.13;;;;;;;-4.66;100.00;102634.94;5051630;28;20047;-50
2021/12/22 01:26:17;;;;;;;24.55;12.93;;;;;;;-4.66;100.00;102636.63;5053218;28;20045;-50
2021/12/22 01:28:45;;;;;;;27.08;13.48;;;;;;;-4.70;100.00;102632.25;5052874;28;20511;-51
2021/12/22 01:31:16;;;;;;;23.83;13.02;;;;;;;-4.77;100.00;102636.38;5050147;28;20428;-51
2021/12/22 01:33:44;;;;;;;23.67;13.17;;;;;;;-4.81;100.00;102635.41;5050894;28;20492;-50
2021/12/22 01:36:12;;;;;;;27.08;12.32;;;;;;;-4.82;100.00;102643.06;5052741;28;20427;-52
2021/12/22 01:38:42;;;;;;;22.88;12.50;;;;;;;-4.78;100.00;102639.75;5052857;28;20106;-54
2021/12/22 01:41:10;;;;;;;25.38;12.40;;;;;;;-4.78;100.00;102640.63;5052718;28;20053;-52
2021/12/22 01:43:38;;;;;;;24.05;13.48;;;;;;;-4.83;100.00;102631.06;5051116;28;20412;-53
2021/12/22 01:46:31;;;;;;;24.17;12.63;;;;;;;-4.87;100.00;102630.09;5049988;28;20064;-51
2021/12/22 01:49:10;;;;;;;24.35;11.20;;;;;;;-4.85;100.00;102627.56;5050897;28;20579;-54
2021/12/22 01:51:47;;;;;;;24.92;13.02;;;;;;;-4.86;100.00;102634.41;5040265;28;20073;-53
2021/12/22 01:54:29;;;;;;;26.58;13.23;;;;;;;-4.87;100.00;102626.66;5031674;28;20103;-50
2021/12/22 01:57:01;;;;;;;22.30;12.32;;;;;;;-4.94;100.00;102625.63;5047738;28;20048;-50
2021/12/22 01:59:30;;;;;;;23.13;11.97;;;;;;;-4.97;100.00;102633.25;5031532;28;20060;-51
2021/12/22 02:01:58;;;;;;;25.00;13.07;;;;;;;-5.03;100.00;102628.81;5041715;28;21008;-53
2021/12/22 02:04:26;;;;;;;25.17;12.70;;;;;;;-5.02;100.00;102622.84;5052362;28;20057;-50
2021/12/22 02:06:54;;;;;;;25.35;12.73;;;;;;;-4.99;100.00;102625.50;5052314;28;20037;-53
2021/12/22 02:09:39;;;;;;;24.30;12.50;;;;;;;-4.99;100.00;102633.22;5052484;28;20049;-52
2021/12/22 02:12:09;;;;;;;24.20;11.25;;;;;;;-5.01;100.00;102628.84;5049293;28;20052;-52
2021/12/22 02:14:40;;;;;;;23.85;11.23;;;;;;;-5.05;100.00;102630.47;5052275;28;20048;-51
2021/12/22 02:17:10;;;;;;;28.27;12.68;;;;;;;-5.07;100.00;102632.13;5047861;28;20053;-50
2021/12/22 02:19:41;;;;;;;24.07;12.10;;;;;;;-5.07;100.00;102632.13;5048682;28;20053;-54
2021/12/22 02:22:12;;;;;;;24.30;12.68;;;;;;;-5.07;100.00;102627.00;5047453;28;20419;-51
2021/12/22 02:24:45;;;;;;;29.30;13.00;;;;;;;-5.07;100.00;102623.53;5051693;28;20059;-54
2021/12/22 02:27:22;;;;;;;24.38;13.13;;;;;;;-5.07;100.00;102623.53;5051913;28;20384;-53
2021/12/22 02:29:57;;;;;;;25.48;13.13;;;;;;;-5.07;100.00;102624.44;5051924;28;20049;-52
2021/12/22 02:32:49;;;;;;;25.05;12.40;;;;;;;-5.07;100.00;102624.44;5049350;28;20053;-53
2021/12/22 02:35:26;;;;;;;22.73;11.98;;;;;;;-5.11;100.00;102614.91;5048487;28;20048;-51
2021/12/22 02:37:54;;;;;;;24.20;12.00;;;;;;;-5.12;100.00;102613.16;5049527;28;20049;-52
2021/12/22 02:40:27;;;;;;;24.75;12.77;;;;;;;-5.11;100.00;102609.78;5051885;28;20406;-51
2021/12/22 02:43:04;;;;;;;24.20;12.70;;;;;;;-5.19;100.00;102621.50;5050476;28;20045;-53
2021/12/22 02:45:34;;;;;;;26.08;12.60;;;;;;;-5.20;100.00;102617.19;5031826;28;20064;-50
2021/12/22 02:48:04;;;;;;;23.67;11.60;;;;;;;-5.18;100.00;102623.22;5030864;28;20049;-54
2021/12/22 02:50:36;;;;;;;24.58;13.05;;;;;;;-5.15;100.00;102615.66;5028271;28;20052;-52
2021/12/22 02:53:09;;;;;;;27.75;13.40;;;;;;;-5.13;100.00;102619.09;5030229;28;20052;-53
2021/12/22 02:55:47;;;;;;;22.67;11.93;;;;;;;-5.20;100.00;102619.78;5046203;28;20052;-53
2021/12/22 02:58:25;;;;;;;23.55;12.90;;;;;;;-5.19;100.00;102617.25;5034993;28;20049;-54
2021/12/22 03:01:07;;;;;;;21.58;11.45;;;;;;;-5.19;100.00;102611.25;5031979;28;20455;-52
2021/12/22 03:03:51;;;;;;;;;;;;;;;-5.28;100.00;102628.13;5031967;28;20057;-53
2021/12/22 03:06:28;;;;;;;20.17;10.68;;;;;;;-5.34;100.00;102620.22;5048493;28;19927;-54
2021/12/22 03:08:56;;;;;;;21.67;11.85;;;;;;;-5.29;100.00;102623.81;5038478;28;20057;-56
2021/12/22 03:11:24;;;;;;;21.40;11.50;;;;;;;-5.37;100.00;102626.97;5042956;28;20045;-48
2021/12/22 03:13:53;;;;;;;25.15;11.63;;;;;;;-5.38;100.00;102633.78;5038569;28;20041;-53
2021/12/22 03:16:21;;;;;;;25.40;11.95;;;;;;;-5.45;100.00;102639.56;5033030;28;20050;-54
2021/12/22 03:18:49;;;;;;;27.45;12.35;;;;;;;-5.51;100.00;102637.66;5031003;28;20099;-52
2021/12/22 03:21:20;;;;;;;25.23;12.48;;;;;;;-5.45;100.00;102645.56;5028530;28;20591;-54
2021/12/22 03:23:53;;;;;;;26.95;12.25;;;;;;;-5.44;100.00;102644.75;5029636;28;20443;-54
2021/12/22 03:26:24;;;;;;;27.80;12.20;;;;;;;-5.28;100.00;102650.31;5038495;28;20056;-51
2021/12/22 03:28:52;;;;;;;26.30;12.50;;;;;;;-5.35;100.00;102654.41;5051078;28;20083;-51
2021/12/22 03:31:20;;;;;;;28.88;13.13;;;;;;;-5.37;100.00;102657.75;5050585;28;20049;-53
2021/12/22 03:33:48;;;;;;;24.58;11.85;;;;;;;-5.42;100.00;102652.47;5046667;28;20053;-50
2021/12/22 03:36:16;;;;;;;22.58;11.70;;;;;;;-5.46;100.00;102654.06;5044972;28;20885;-53
2021/12/22 03:38:46;;;;;;;21.42;11.35;;;;;;;-5.44;100.00;102648.97;5031126;28;20041;-51
2021/12/22 03:41:16;;;;;;;23.90;12.48;;;;;;;-5.40;100.00;102653.38;5031112;28;20057;-50
2021/12/22 03:43:44;;;;;;;23.38;11.32;;;;;;;-5.41;100.00;102640.50;5049626;28;20063;-53
2021/12/22 03:46:12;;;;;;;21.27;10.77;;;;;;;-5.46;100.00;102646.38;5044650;28;20038;-50
2021/12/22 03:48:42;;;;;;;23.52;10.23;;;;;;;-5.41;100.00;102636.28;5030883;28;20049;-52
2021/12/22 03:51:10;;;;;;;23.48;11.52;;;;;;;-5.41;100.00;102636.28;5032894;28;20049;-50
2021/12/22 03:53:38;;;;;;;24.95;11.23;;;;;;;-5.52;100.00;102632.50;5034732;28;20061;-51
2021/12/22 03:56:07;;;;;;;24.50;11.50;;;;;;;-5.44;100.00;102636.16;5034784;28;20489;-49
2021/12/22 03:58:36;;;;;;;24.55;11.13;;;;;;;-5.54;100.00;102636.72;5034678;28;20671;-48
2021/12/22 04:01:05;;;;;;;21.40;10.48;;;;;;;-5.52;100.00;102622.25;5034810;28;20049;-51
2021/12/22 04:03:35;;;;;;;24.90;10.88;;;;;;;-5.58;100.00;102630.63;5033293;28;20054;-53
2021/12/22 04:06:04;;;;;;;21.85;10.40;;;;;;;-5.60;100.00;102625.47;5034730;28;20045;-52
2021/12/22 04:08:32;;;;;;;20.55;10.80;;;;;;;-5.55;100.00;102624.72;5034577;28;20100;-54
2021/12/22 04:11:01;;;;;;;23.13;11.00;;;;;;;-5.58;100.00;102624.63;5032539;28;20500;-55
2021/12/22 04:13:29;;;;;;;27.27;12.05;;;;;;;-5.58;100.00;102624.63;5031642;28;20079;-50
2021/12/22 04:15:58;;;;;;;24.85;11.05;;;;;;;-5.62;100.00;102624.56;5033746;28;20053;-50
2021/12/22 04:18:26;;;;;;;23.70;10.73;;;;;;;-5.73;100.00;102618.22;5034449;28;20045;-53
2021/12/22 04:20:54;;;;;;;23.58;11.18;;;;;;;-5.81;100.00;102614.53;5034368;28;20045;-50
2021/12/22 04:23:23;;;;;;;25.20;11.50;;;;;;;-5.77;100.00;102612.13;5034295;28;20073;-50
2021/12/22 04:25:51;;;;;;;25.45;11.25;;;;;;;-5.79;100.00;102615.47;5034174;28;20053;-52
2021/12/22 04:28:19;;;;;;;20.77;10.48;;;;;;;-5.75;100.00;102614.75;5034324;28;20045;-50
2021/12/22 04:30:50;;;;;;;25.08;10.30;;;;;;;-5.71;100.00;102611.44;5032943;28;20377;-49
2021/12/22 04:33:20;;;;;;;26.17;9.98;;;;;;;-5.87;100.00;102614.38;5030358;28;20053;-50
2021/12/22 04:35:50;;;;;;;23.15;11.55;;;;;;;-5.95;100.00;102614.13;5033395;28;20771;-50
2021/12/22 04:38:19;;;;;;;20.90;10.32;;;;;;;-5.87;100.00;102611.81;5034041;28;20037;-51
2021/12/22 04:40:47;;;;;;;23.33;11.30;;;;;;;-5.79;100.00;102608.63;5034130;28;20053;-49
2021/12/22 04:43:16;;;;;;;24.63;12.10;;;;;;;-5.88;100.00;102603.22;5033951;28;20045;-52
2021/12/22 04:45:44;;;;;;;23.27;10.52;;;;;;;-5.89;100.00;102601.50;5033804;28;20041;-53
2021/12/22 04:48:13;;;;;;;25.15;10.93;;;;;;;-5.92;100.00;102593.69;5034049;28;20495;-53
2021/12/22 04:50:42;;;;;;;22.02;10.52;;;;;;;-5.95;100.00;102589.34;5033772;28;20676;-53
2021/12/22 04:53:14;;;;;;;27.50;10.68;;;;;;;-5.97;100.00;102585.88;5033285;28;20053;-53
2021/12/22 04:55:42;;;;;;;18.45;9.00;;;;;;;-6.04;100.00;102594.25;5031285;28;20523;-52
2021/12/22 04:58:10;;;;;;;20.05;10.48;;;;;;;-6.01;100.00;102583.19;5032567;28;20137;-54
2021/12/22 05:00:40;;;;;;;20.38;10.00;;;;;;;-6.10;100.00;102591.47;5033607;28;20053;-54
2021/12/22 05:03:08;;;;;;;22.98;11.00;;;;;;;-6.15;100.00;102590.44;5029014;28;20061;-53
2021/12/22 05:05:36;;;;;;;24.02;10.63;;;;;;;-6.17;100.00;102581.84;5031176;28;20131;-53
2021/12/22 05:08:06;;;;;;;21.27;10.35;;;;;;;-6.12;100.00;102581.19;5032101;28;20107;-53
2021/12/22 05:10:34;;;;;;;22.52;11.00;;;;;;;-6.11;100.00;102576.91;5030426;28;20911;-52
2021/12/22 05:13:02;;;;;;;23.58;10.20;;;;;;;-6.12;100.00;102582.88;5032696;28;20053;-51
2021/12/22 05:15:37;;;;;;;22.20;10.95;;;;;;;-6.18;100.00;102578.41;5033189;28;20057;-53
2021/12/22 05:18:24;;;;;;;22.83;10.77;;;;;;;-6.14;100.00;102590.50;5033136;28;20115;-53
2021/12/22 05:20:53;;;;;;;20.15;10.80;;;;;;;-6.06;100.00;102580.50;5030927;28;20104;-53
2021/12/22 05:23:23;;;;;;;22.67;11.85;;;;;;;-6.09;100.00;102576.97;5032062;28;20053;-53
2021/12/22 05:25:51;;;;;;;22.90;11.38;;;;;;;-6.09;100.00;102575.28;5033257;28;20057;-52
2021/12/22 05:28:19;;;;;;;22.42;11.15;;;;;;;-6.08;100.00;102571.91;5030601;28;20049;-52
2021/12/22 05:30:47;;;;;;;20.88;10.35;;;;;;;-6.05;100.00;102582.25;5030903;28;20050;-50
2021/12/22 05:33:15;;;;;;;21.40;10.50;;;;;;;-6.17;100.00;102579.28;5033127;28;20050;-51
2021/12/22 05:35:43;;;;;;;24.13;11.25;;;;;;;-6.19;100.00;102579.25;5033032;28;20052;-53
2021/12/22 05:38:12;;;;;;;28.55;12.48;;;;;;;-6.18;100.00;102573.28;5032956;28;20384;-54
2021/12/22 05:40:42;;;;;;;22.90;11.27;;;;;;;-6.18;100.00;102569.88;5030640;28;20041;-53
2021/12/22 05:43:10;;;;;;;22.73;12.68;;;;;;;-6.20;100.00;102567.25;5030586;28;20780;-51
2021/12/22 05:45:39;;;;;;;23.77;11.68;;;;;;;-6.09;100.00;102570.16;5032835;28;20099;-51
2021/12/22 05:48:07;;;;;;;23.85;12.07;;;;;;;-6.08;100.00;102565.91;5032897;28;20592;-50
2021/12/22 05:50:35;;;;;;;28.33;12.38;;;;;;;-6.15;100.00;102575.06;5032673;28;20542;-53
2021/12/22 05:53:03;;;;;;;24.33;12.55;;;;;;;-6.19;100.00;102571.56;5032488;28;20037;-52
2021/12/22 05:55:32;;;;;;;28.40;12.13;;;;;;;-6.15;100.00;102568.28;5032631;28;20073;-51
2021/12/22 05:58:01;;;;;;;25.33;11.45;;;;;;;-6.16;100.00;102575.88;5032580;28;20053;-51
2021/12/22 06:00:30;;;;;;;22.25;11.93;;;;;;;-6.12;100.00;102573.50;5032538;28;20042;-54
2021/12/22 06:02:58;;;;;;;26.40;13.23;;;;;;;-6.13;100.00;102571.75;5032635;28;20033;-53
2021/12/22 06:05:26;;;;;;;31.15;13.18;;;;;;;-6.10;100.00;102570.13;5031534;28;20037;-54
2021/12/22 06:07:54;;;;;;;28.63;12.88;;;;;;;-6.16;100.00;102574.22;5032089;28;20049;-53
2021/12/22 06:10:23;;;;;;;33.53;13.25;;;;;;;-6.07;100.00;102568.50;5031453;28;20324;-53
2021/12/22 06:12:51;;;;;;;23.48;12.45;;;;;;;-6.08;100.00;102568.47;5029635;28;20049;-54
2021/12/22 06:15:20;;;;;;;29.48;13.95;;;;;;;-6.09;100.00;102566.72;5030745;28;20053;-52
2021/12/22 06:17:54;;;;;;;30.52;13.23;;;;;;;-6.17;100.00;102564.78;5031773;28;20046;-52
2021/12/22 06:20:23;;;;;;;32.65;14.45;;;;;;;-6.10;100.00;102553.03;5032124;28;20049;-53
2021/12/22 06:22:51;;;;;;;30.10;13.05;;;;;;;-6.08;100.00;102553.09;5031011;28;20118;-52
2021/12/22 06:25:19;;;;;;;31.45;13.60;;;;;;;-6.06;100.00;102554.03;5029537;28;20057;-50
2021/12/22 06:27:48;;;;;;;29.10;15.52;;;;;;;-6.02;100.00;102556.72;5031218;28;20041;-49
2021/12/22 06:30:16;;;;;;;31.70;13.73;;;;;;;-6.05;100.00;102563.41;5031898;28;20504;-53
2021/12/22 06:32:46;;;;;;;34.70;14.40;;;;;;;-6.08;100.00;102564.22;5028403;28;20057;-53
2021/12/22 06:35:14;;;;;;;34.38;14.80;;;;;;;-6.07;100.00;102573.63;5028823;28;20421;-52
2021/12/22 06:37:43;;;;;;;30.08;13.60;;;;;;;-6.03;100.00;102562.66;5030255;28;20132;-51
2021/12/22 06:40:12;;;;;;;33.38;13.85;;;;;;;-6.05;100.00;102564.31;5031685;28;20061;-51
2021/12/22 06:42:41;;;;;;;30.67;14.00;;;;;;;-5.99;100.00;102567.03;5031669;28;20057;-52
2021/12/22 06:45:11;;;;;;;31.92;14.52;;;;;;;-5.91;100.00;102572.38;5031598;28;20053;-50
2021/12/22 06:47:39;;;;;;;30.48;13.93;;;;;;;-5.94;100.00;102574.88;5027700;28;20056;-51
2021/12/22 06:50:10;;;;;;;29.48;13.30;;;;;;;-5.95;100.00;102573.97;5028888;28;20046;-50
2021/12/22 06:52:38;;;;;;;32.88;13.63;;;;;;;-5.93;100.00;102568.91;5031594;28;20520;-52
2021/12/22 06:55:07;;;;;;;30.75;13.40;;;;;;;-5.84;100.00;102573.44;5031599;28;20049;-53
2021/12/22 06:57:36;;;;;;;34.65;13.48;;;;;;;-5.88;100.00;102569.03;5031403;28;20072;-53
2021/12/22 07:00:07;;;;;;;29.25;13.00;;;;;;;-5.89;100.00;102570.75;5031510;28;20503;-52
2021/12/22 07:02:37;;;;;;;34.20;14.93;;;;;;;-5.91;100.00;102572.38;5031397;28;20053;-54
2021/12/22 07:05:07;;;;;;;30.45;12.57;;;;;;;-5.88;100.00;102576.72;5031696;28;20406;-53
2021/12/22 07:07:38;;;;;;;32.30;14.05;;;;;;;-5.94;100.00;102573.16;5031484;28;20435;-51
2021/12/22 07:10:10;;;;;;;29.90;13.45;;;;;;;-5.92;100.00;102583.44;5031745;28;20563;-51
2021/12/22 07:12:40;;;;;;;29.85;12.90;;;;;;;-5.91;100.00;102572.38;5031444;28;20052;-50
2021/12/22 07:15:12;;;;;;;32.90;13.45;;;;;;;-5.90;100.00;102578.38;5031463;28;20049;-50
2021/12/22 07:17:41;;;;;;;29.92;13.43;;;;;;;-5.89;100.00;102564.75;5035109;28;20056;-49
2021/12/22 07:20:11;;;;;;;30.67;13.50;;;;;;;-5.88;100.00;102567.34;5037896;28;20114;-51
2021/12/22 07:22:40;;;;;;;31.10;13.52;;;;;;;-5.88;100.00;102567.34;5037902;28;20103;-52
2021/12/22 07:25:12;;;;;;;32.15;13.15;;;;;;;-5.91;100.00;102569.81;5037987;28;20046;-52
2021/12/22 07:28:34;;;;;;;29.95;14.90;;;;;;;-5.92;100.00;102567.22;5035522;28;20516;-53
2021/12/22 07:31:02;;;;;;;30.92;12.98;;;;;;;-5.90;100.00;102566.44;5037388;28;20049;-51
2021/12/22 07:33:30;;;;;;;33.85;14.10;;;;;;;-5.91;100.00;102571.53;5033625;28;20057;-53
2021/12/22 07:36:00;;;;;;;32.97;14.05;;;;;;;-5.89;100.00;102572.44;5035132;28;20049;-51
2021/12/22 07:38:47;;;;;;;26.05;12.23;;;;;;;-5.94;100.00;102567.16;5037935;28;20156;-51
2021/12/22 07:41:16;;;;;;;29.35;12.95;;;;;;;-5.94;100.00;102562.91;5038084;28;20049;-51
2021/12/22 07:43:48;;;;;;;;;;;;;;;-5.94;100.00;102559.47;5038323;28;20049;-53
2021/12/22 07:46:16;;;;;;;28.75;12.18;;;;;;;-5.93;100.00;102550.97;5036801;28;19925;-53
2021/12/22 07:48:45;;;;;;;30.63;12.25;;;;;;;-5.96;100.00;102543.19;5033603;28;20076;-54
2021/12/22 07:51:13;;;;;;;29.17;13.15;;;;;;;-5.97;100.00;102551.69;5036479;28;20060;-51
2021/12/22 07:53:43;;;;;;;31.52;13.55;;;;;;;-5.88;100.00;102553.66;5037448;28;20049;-52
2021/12/22 07:56:12;;;;;;;29.08;13.93;;;;;;;-5.99;100.00;102543.97;5037283;28;20041;-51
2021/12/22 07:58:40;;;;;;;30.23;13.48;;;;;;;-5.95;100.00;102552.63;5037443;28;20420;-53
2021/12/22 08:01:09;;;;;;;32.42;13.18;;;;;;;-5.91;100.00;102551.03;5037157;28;20505;-52
2021/12/22 08:03:37;;;;;;;29.23;12.55;;;;;;;-5.92;100.00;102556.97;5035256;28;20050;-53
2021/12/22 08:06:11;;;;;;;32.88;12.70;;;;;;;-5.95;100.00;102547.50;5034993;28;20096;-53
2021/12/22 08:08:39;;;;;;;34.55;14.70;;;;;;;-5.96;100.00;102551.75;5036959;28;20053;-51
2021/12/22 08:11:09;;;;;;;32.85;14.48;;;;;;;-5.94;100.00;102550.09;5037699;28;20050;-53
2021/12/22 08:13:37;;;;;;;37.53;18.13;;;;;;;-5.91;100.00;102548.47;5037288;28;20164;-50
2021/12/22 08:16:05;;;;;;;35.67;16.13;;;;;;;-5.92;100.00;102549.28;5037132;28;20408;-50
2021/12/22 08:18:33;;;;;;;37.17;16.90;;;;;;;-5.88;100.00;102543.41;5037342;28;20072;-50
2021/12/22 08:21:02;;;;;;;33.83;13.90;;;;;;;-5.81;100.00;102547.91;5037506;28;20045;-50
2021/12/22 08:23:34;;;;;;;32.15;15.00;;;;;;;-5.82;100.00;102541.03;5037240;28;20488;-53
2021/12/22 08:26:03;;;;;;;34.53;14.88;;;;;;;-5.84;100.00;102537.56;5037512;28;20057;-49
2021/12/22 08:28:32;;;;;;;34.92;15.68;;;;;;;-5.78;100.00;102535.16;5035584;28;20049;-54
2021/12/22 08:31:00;;;;;;;31.50;14.68;;;;;;;-5.74;100.00;102537.00;5034208;28;20046;-52
2021/12/22 08:33:31;;;;;;;34.38;14.23;;;;;;;-5.70;100.00;102533.72;5034230;28;20041;-54
2021/12/22 08:38:54;;;;;;;33.35;15.20;;;;;;;-5.51;100.00;102536.81;5033372;28;20076;-53
2021/12/22 08:41:25;;;;;;;31.15;13.38;;;;;;;-5.47;100.00;102531.81;5032127;28;20037;-52
2021/12/22 08:43:56;;;;;;;32.63;14.95;;;;;;;-5.38;100.00;102533.75;5031561;28;20049;-52
2021/12/22 08:46:28;;;;;;;32.05;13.73;;;;;;;-5.39;100.00;102529.44;5033640;28;20049;-51
2021/12/22 08:48:57;;;;;;;34.88;14.13;;;;;;;-5.35;100.00;102517.59;5033901;28;20623;-53
2021/12/22 08:51:25;;;;;;;43.72;15.70;;;;;;;-5.31;100.00;102527.09;5034100;28;20440;-54
2021/12/22 08:53:54;;;;;;;32.45;13.45;;;;;;;-5.29;100.00;102528.91;5034068;28;20054;-52
2021/12/22 08:56:23;;;;;;;33.90;14.23;;;;;;;-5.24;100.00;102538.41;5033963;28;20045;-54
2021/12/22 08:58:51;;;;;;;36.58;15.73;;;;;;;-5.18;100.00;102533.44;5031233;28;20049;-52
2021/12/22 09:01:21;;;;;;;33.10;14.73;;;;;;;-5.11;100.00;102532.78;5031885;28;20061;-52
2021/12/22 09:03:50;;;;;;;30.42;13.90;;;;;;;-5.00;100.00;102531.38;5031539;28;20587;-51
2021/12/22 09:06:18;;;;;;;30.60;14.23;;;;;;;-4.96;100.00;102527.19;5030724;28;20072;-50
2021/12/22 09:08:46;;;;;;;34.58;16.20;;;;;;;-4.89;100.00;102530.75;5032530;28;20029;-52
2021/12/22 09:11:15;;;;;;;30.42;15.00;;;;;;;-4.82;100.00;102540.38;5033579;28;20044;-54
2021/12/22 09:13:43;;;;;;;33.47;15.65;;;;;;;-4.61;100.00;102537.47;5033409;28;20049;-49
2021/12/22 09:16:12;;;;;;;36.47;17.48;;;;;;;-4.42;100.00;102542.25;5033377;28;20076;-52
2021/12/22 09:18:42;;;;;;;32.72;14.30;;;;;;;-4.11;100.00;102545.53;5032000;28;20072;-52
2021/12/22 09:21:12;;;;;;;36.28;14.43;;;;;;;-3.94;100.00;102539.88;5033089;28;20056;-50
2021/12/22 09:23:40;;;;;;;29.33;13.50;;;;;;;-3.80;100.00;102538.50;5032962;28;20095;-53
2021/12/22 09:26:09;;;;;;;32.25;14.25;;;;;;;-3.50;100.00;102545.13;5033332;28;20068;-53
2021/12/22 09:28:38;;;;;;;30.65;13.20;;;;;;;-3.43;100.00;102540.97;5033120;28;20054;-53
2021/12/22 09:31:06;;;;;;;25.75;13.55;;;;;;;-3.50;100.00;102544.28;5033212;28;20045;-52
2021/12/22 09:33:35;;;;;;;31.50;13.48;;;;;;;-3.45;100.00;102545.22;5033107;28;20049;-49
2021/12/22 09:36:08;;;;;;;32.17;14.82;;;;;;;-3.47;100.00;102541.75;5032804;28;20046;-52
2021/12/22 09:38:36;;;;;;;27.77;13.50;;;;;;;-3.40;100.00;102547.03;5032628;28;20065;-50
2021/12/22 09:41:05;;;;;;;26.10;12.88;;;;;;;-3.36;100.00;102545.41;5029567;28;20080;-53
2021/12/22 09:43:34;;;;;;;27.67;12.70;;;;;;;-3.30;100.00;102540.38;5031232;28;20045;-54
2021/12/22 09:46:06;;;;;;;27.98;13.05;;;;;;;-3.32;100.00;102538.63;5031132;28;20064;-50
2021/12/22 09:48:48;;;;;;;25.08;12.15;;;;;;;-3.32;100.00;102539.47;5027719;28;20057;-53
2021/12/22 09:54:10;;;;;;;26.08;11.85;;;;;;;-3.31;100.00;102535.19;5029069;28;20056;-53
2021/12/22 09:56:42;;;;;;;30.15;12.65;;;;;;;-3.21;100.00;102538.84;5031920;28;20128;-52
2021/12/22 09:59:12;;;;;;;26.95;12.48;;;;;;;-3.10;100.00;102535.59;5032553;28;20104;-53
2021/12/22 10:01:40;;;;;;;27.30;12.13;;;;;;;-3.12;100.00;102529.56;5032537;28;20053;-53
2021/12/22 10:04:09;;;;;;;23.45;11.20;;;;;;;-3.03;100.00;102525.44;5032594;28;20057;-54
2021/12/22 10:06:38;;;;;;;27.23;13.30;;;;;;;-3.00;100.00;102528.06;5030839;28;20562;-53
2021/12/22 10:09:07;;;;;;;21.33;11.75;;;;;;;-2.95;100.00;102537.59;5029512;28;20045;-52
2021/12/22 10:11:44;;;;;;;26.25;12.48;;;;;;;-2.93;100.00;102538.50;5031307;28;20125;-53
2021/12/22 10:14:24;;;;;;;22.52;11.00;;;;;;;-2.81;100.00;102524.09;5032356;28;20045;-52
2021/12/22 10:16:53;;;;;;;20.58;10.35;;;;;;;-2.66;100.00;102528.66;5031913;28;20049;-54
2021/12/22 10:19:25;;;;;;;23.15;11.25;;;;;;;-2.68;100.00;102522.63;5031964;28;20057;-53
2021/12/22 10:21:57;;;;;;;21.83;11.55;;;;;;;-2.61;100.00;102521.88;5032117;28;20060;-52
2021/12/22 10:24:37;;;;;;;25.08;10.32;;;;;;;-2.59;100.00;102520.16;5032108;28;20041;-53
2021/12/22 10:27:06;;;;;;;18.33;9.55;;;;;;;-2.51;100.00;102520.31;5032129;28;20072;-54
2021/12/22 10:29:36;;;;;;;17.38;9.52;;;;;;;-2.39;100.00;102516.22;5032339;28;20052;-50
2021/12/22 10:32:11;;;;;;;18.98;9.45;;;;;;;-2.38;100.00;102514.50;5031857;28;20474;-54
2021/12/22 10:34:57;;;;;;;16.45;8.88;;;;;;;-2.29;100.00;102506.91;5032179;28;20053;-53
2021/12/22 10:37:38;;;;;;;21.23;9.80;;;;;;;-2.24;100.00;102515.56;5031804;28;20439;-54
2021/12/22 10:40:22;;;;;;;18.95;10.40;;;;;;;-2.18;100.00;102507.06;5030265;28;20057;-52
2021/12/22 10:42:50;;;;;;;20.00;9.60;;;;;;;-2.15;100.00;102498.53;5028544;28;20734;-52
2021/12/22 10:45:19;;;;;;;16.48;9.45;;;;;;;-2.09;100.00;102494.28;5031282;28;20065;-54
2021/12/22 10:50:34;;;;;;;22.02;9.95;;;;;;;-2.07;100.00;102484.88;5031388;28;20041;-52
2021/12/22 10:53:04;;;;;;;18.55;10.40;;;;;;;-1.94;100.00;102482.47;5029660;28;20115;-54
2021/12/22 10:55:40;;;;;;;19.70;9.55;;;;;;;-1.90;100.00;102484.22;5031476;28;20101;-54
2021/12/22 10:58:17;;;;;;;16.10;8.60;;;;;;;-1.96;100.00;102487.59;5031699;28;20409;-56
2021/12/22 11:00:45;;;;;;;15.95;8.77;;;;;;;-1.92;100.00;102489.38;5030887;28;20103;-54
2021/12/22 11:03:15;;;;;;;19.88;10.38;;;;;;;-1.89;100.00;102480.81;5028059;28;20111;-56
2021/12/22 11:05:44;;;;;;;19.17;10.32;;;;;;;-1.87;100.00;102485.16;5026986;28;20086;-56
2021/12/22 11:08:21;;;;;;;18.95;9.60;;;;;;;-1.78;100.00;102478.38;5030974;28;20056;-54
2021/12/22 11:10:52;;;;;;;20.38;9.95;;;;;;;-1.68;100.00;102477.63;5030038;28;20049;-55
2021/12/22 11:13:22;;;;;;;18.98;10.15;;;;;;;-1.59;100.00;102475.16;5031343;28;20053;-56
2021/12/22 11:15:51;;;;;;;18.77;8.98;;;;;;;-1.59;100.00;102472.56;5029931;28;20626;-56
2021/12/22 11:18:26;;;;;;;18.25;9.60;;;;;;;-1.57;100.00;102470.91;5031184;28;20075;-55
2021/12/22 11:21:09;;;;;;;15.88;8.35;;;;;;;-1.52;100.00;102467.50;5027660;28;20072;-56
2021/12/22 11:23:38;;;;;;;17.27;9.45;;;;;;;-1.51;100.00;102464.03;5028621;28;20080;-56
2021/12/22 11:26:07;;;;;;;16.05;9.65;;;;;;;-1.47;100.00;102450.31;5031533;28;20048;-55